createdAt,value
2022-08-27T00:02:18.107Z,19.76
2022-08-27T00:05:06.351Z,19.64
2022-08-27T00:07:54.186Z,19.67
2022-08-27T00:10:42.486Z,19.62
2022-08-27T00:13:30.137Z,19.64
2022-08-27T00:16:18.981Z,19.30
2022-08-27T00:19:07.007Z,19.43
2022-08-27T00:21:55.965Z,18.97
2022-08-27T00:24:48.539Z,19.52
2022-08-27T00:27:37.668Z,19.45
2022-08-27T00:30:25.335Z,19.55
2022-08-27T00:33:13.617Z,19.43
2022-08-27T00:36:01.758Z,19.32
2022-08-27T00:38:49.787Z,19.42
2022-08-27T00:41:43.650Z,19.37
2022-08-27T00:44:32.260Z,19.47
2022-08-27T00:47:27.034Z,19.27
2022-08-27T00:50:19.851Z,19.42
2022-08-27T00:53:20.111Z,19.43
2022-08-27T00:56:17.251Z,19.34
2022-08-27T00:59:05.124Z,19.09
2022-08-27T01:02:11.461Z,19.32
2022-08-27T01:05:05.743Z,19.24
2022-08-27T01:07:58.320Z,18.92
2022-08-27T01:10:46.912Z,19.17
2022-08-27T01:13:58.853Z,18.91
2022-08-27T01:16:49.721Z,18.97
2022-08-27T01:20:08.489Z,18.89
2022-08-27T01:23:10.594Z,18.70
2022-08-27T01:25:59.867Z,18.83
2022-08-27T01:28:49.381Z,18.81
2022-08-27T01:31:37.481Z,18.85
2022-08-27T01:34:25.847Z,18.89
2022-08-27T01:37:15.319Z,18.88
2022-08-27T01:43:09.949Z,18.86
2022-08-27T01:45:57.607Z,18.80
2022-08-27T01:48:48.261Z,18.73
2022-08-27T01:51:36.142Z,18.73
2022-08-27T01:54:23.950Z,18.69
2022-08-27T01:57:12.404Z,18.47
2022-08-27T02:00:00.345Z,18.57
2022-08-27T02:02:49.017Z,18.61
2022-08-27T02:05:44.922Z,18.50
2022-08-27T02:08:33.541Z,18.49
2022-08-27T02:11:21.259Z,18.40
2022-08-27T02:14:12.918Z,18.42
2022-08-27T02:17:01.535Z,18.40
2022-08-27T02:19:49.606Z,18.38
2022-08-27T02:22:38.863Z,18.38
2022-08-27T02:25:27.980Z,18.39
2022-08-27T02:28:18.261Z,18.18
2022-08-27T02:31:06.365Z,18.27
2022-08-27T02:33:54.253Z,18.26
2022-08-27T02:36:41.994Z,18.22
2022-08-27T02:39:29.683Z,18.24
2022-08-27T02:42:17.409Z,18.22
2022-08-27T02:45:08.233Z,18.18
2022-08-27T02:47:56.030Z,18.09
2022-08-27T02:50:47.005Z,18.03
2022-08-27T02:53:38.246Z,18.12
2022-08-27T02:56:28.175Z,18.09
2022-08-27T02:59:15.943Z,17.90
2022-08-27T03:02:03.899Z,18.08
2022-08-27T03:04:51.683Z,18.18
2022-08-27T03:07:40.484Z,18.04
2022-08-27T03:10:28.209Z,18.02
2022-08-27T03:13:15.915Z,18.02
2022-08-27T03:16:04.122Z,18.07
2022-08-27T03:18:52.466Z,18.02
2022-08-27T03:21:40.164Z,17.91
2022-08-27T03:24:27.968Z,17.62
2022-08-27T03:27:17.331Z,17.84
2022-08-27T03:30:12.229Z,17.86
2022-08-27T03:32:59.844Z,17.59
2022-08-27T03:35:51.722Z,17.76
2022-08-27T03:38:50.301Z,17.70
2022-08-27T03:41:54.819Z,17.67
2022-08-27T03:44:43.067Z,17.65
2022-08-27T03:47:30.854Z,17.64
2022-08-27T03:50:18.492Z,17.60
2022-08-27T03:53:06.255Z,17.70
2022-08-27T03:55:53.970Z,17.71
2022-08-27T03:58:42.433Z,17.79
2022-08-27T04:01:30.166Z,17.79
2022-08-27T04:04:17.860Z,17.72
2022-08-27T04:07:05.974Z,17.76
2022-08-27T04:09:54.172Z,17.84
2022-08-27T04:12:42.686Z,17.91
2022-08-27T04:15:30.425Z,17.78
2022-08-27T04:18:19.173Z,17.91
2022-08-27T04:21:09.415Z,17.86
2022-08-27T04:23:57.171Z,17.94
2022-08-27T04:26:48.773Z,17.78
2022-08-27T04:29:43.626Z,17.94
2022-08-27T04:32:32.325Z,18.04
2022-08-27T04:35:22.247Z,18.08
2022-08-27T04:38:10.340Z,18.14
2022-08-27T04:41:23.450Z,18.11
2022-08-27T04:44:11.671Z,18.28
2022-08-27T04:47:03.090Z,18.37
2022-08-27T04:49:56.628Z,18.51
2022-08-27T04:52:45.070Z,18.56
2022-08-27T04:55:32.971Z,18.68
2022-08-27T04:58:22.112Z,18.92
2022-08-27T05:05:19.357Z,19.39
2022-08-27T05:08:08.275Z,19.60
2022-08-27T05:10:57.172Z,19.75
2022-08-27T05:13:46.300Z,20.06
2022-08-27T05:16:36.653Z,20.17
2022-08-27T05:19:24.479Z,20.31
2022-08-27T05:22:15.178Z,20.33
2022-08-27T05:25:13.281Z,20.36
2022-08-27T05:28:01.213Z,20.82
2022-08-27T05:30:55.589Z,21.03
2022-08-27T05:33:44.898Z,20.97
2022-08-27T05:36:35.416Z,21.34
2022-08-27T05:39:25.093Z,21.63
2022-08-27T05:42:13.005Z,21.68
2022-08-27T05:45:00.935Z,21.81
2022-08-27T05:47:54.901Z,22.05
2022-08-27T05:50:44.654Z,22.31
2022-08-27T05:53:32.503Z,22.28
2022-08-27T05:56:22.939Z,22.35
2022-08-27T05:59:29.405Z,22.35
2022-08-27T06:02:17.396Z,22.44
2022-08-27T06:05:05.590Z,22.53
2022-08-27T06:07:53.417Z,22.57
2022-08-27T06:10:43.031Z,23.01
2022-08-27T06:13:31.856Z,23.15
2022-08-27T06:16:21.685Z,23.45
2022-08-27T06:19:12.399Z,23.65
2022-08-27T06:22:09.834Z,23.80
2022-08-27T06:24:59.968Z,23.83
2022-08-27T06:27:50.682Z,24.38
2022-08-27T06:30:38.534Z,24.00
2022-08-27T06:33:26.165Z,24.44
2022-08-27T06:36:17.007Z,24.48
2022-08-27T06:39:07.747Z,24.74
2022-08-27T06:41:55.590Z,24.89
2022-08-27T06:44:43.297Z,25.36
2022-08-27T06:47:34.255Z,25.15
2022-08-27T06:50:26.706Z,25.41
2022-08-27T06:53:15.026Z,25.79
2022-08-27T06:56:11.551Z,25.79
2022-08-27T06:59:11.490Z,25.67
2022-08-27T07:01:59.872Z,25.67
2022-08-27T07:04:53.487Z,25.62
2022-08-27T07:07:48.674Z,26.35
2022-08-27T07:10:37.042Z,26.98
2022-08-27T07:13:25.464Z,26.68
2022-08-27T07:16:23.903Z,27.32
2022-08-27T07:19:11.833Z,27.31
2022-08-27T07:22:06.213Z,27.43
2022-08-27T07:24:54.003Z,27.52
2022-08-27T07:27:49.340Z,27.57
2022-08-27T07:30:43.029Z,27.86
2022-08-27T07:33:30.561Z,27.85
2022-08-27T07:36:18.705Z,27.77
2022-08-27T07:39:07.564Z,28.10
2022-08-27T07:42:23.259Z,28.27
2022-08-27T07:45:11.219Z,28.28
2022-08-27T07:47:58.997Z,28.60
2022-08-27T07:50:48.935Z,28.08
2022-08-27T07:53:36.565Z,28.36
2022-08-27T07:56:24.245Z,28.41
2022-08-27T07:59:14.779Z,28.34
2022-08-27T08:02:03.705Z,28.84
2022-08-27T08:04:51.831Z,28.89
2022-08-27T08:07:40.103Z,28.94
2022-08-27T08:10:35.642Z,28.94
2022-08-27T08:13:46.584Z,29.20
2022-08-27T08:16:39.265Z,29.44
2022-08-27T08:19:29.813Z,29.60
2022-08-27T08:22:21.053Z,30.11
2022-08-27T08:25:12.957Z,29.92
2022-08-27T08:28:03.317Z,29.62
2022-08-27T08:30:55.606Z,29.83
2022-08-27T08:33:48.246Z,29.76
2022-08-27T08:36:36.532Z,29.91
2022-08-27T08:39:29.504Z,30.18
2022-08-27T08:42:50.596Z,30.79
2022-08-27T08:45:48.064Z,30.91
2022-08-27T08:48:43.808Z,31.30
2022-08-27T08:51:41.431Z,31.42
2022-08-27T08:54:33.842Z,31.20
2022-08-27T08:57:29.768Z,31.46
2022-08-27T09:00:24.570Z,31.61
2022-08-27T09:03:15.923Z,31.64
2022-08-27T09:06:05.709Z,31.77
2022-08-27T09:08:53.465Z,31.97
2022-08-27T09:11:52.621Z,31.93
2022-08-27T09:14:55.181Z,31.96
2022-08-27T09:17:49.991Z,31.92
2022-08-27T09:20:39.030Z,32.20
2022-08-27T09:23:38.767Z,32.68
2022-08-27T09:26:28.864Z,32.48
2022-08-27T09:29:21.268Z,32.60
2022-08-27T09:32:10.161Z,32.05
2022-08-27T09:35:00.101Z,32.50
2022-08-27T09:37:53.030Z,32.88
2022-08-27T09:40:50.514Z,32.58
2022-08-27T09:43:41.557Z,32.93
2022-08-27T09:46:32.354Z,32.98
2022-08-27T09:49:22.631Z,32.75
2022-08-27T09:52:19.621Z,33.01
2022-08-27T09:55:07.709Z,33.45
2022-08-27T09:58:08.370Z,33.93
2022-08-27T10:01:03.002Z,33.83
2022-08-27T10:03:50.922Z,33.90
2022-08-27T10:06:45.785Z,34.01
2022-08-27T10:09:45.147Z,34.63
2022-08-27T10:13:25.234Z,34.56
2022-08-27T10:16:34.785Z,34.39
2022-08-27T10:19:46.498Z,34.30
2022-08-27T10:22:44.890Z,33.95
2022-08-27T10:26:03.541Z,34.54
2022-08-27T10:29:22.875Z,34.53
2022-08-27T10:32:40.781Z,34.38
2022-08-27T10:35:48.181Z,34.43
2022-08-27T10:39:04.472Z,35.14
2022-08-27T10:42:06.743Z,34.93
2022-08-27T10:45:30.682Z,34.68
2022-08-27T10:48:39.883Z,35.16
2022-08-27T10:51:47.223Z,34.88
2022-08-27T10:55:10.615Z,34.92
2022-08-27T10:58:29.982Z,35.13
2022-08-27T11:01:31.435Z,34.53
2022-08-27T11:04:38.250Z,34.82
2022-08-27T11:07:40.631Z,34.97
2022-08-27T11:10:39.323Z,34.92
2022-08-27T11:13:33.647Z,34.96
2022-08-27T11:16:28.966Z,35.03
2022-08-27T11:19:31.985Z,34.99
2022-08-27T11:22:26.868Z,35.02
2022-08-27T11:25:21.485Z,35.31
2022-08-27T11:28:11.731Z,35.04
2022-08-27T11:31:06.458Z,35.68
2022-08-27T11:34:10.572Z,35.63
2022-08-27T11:37:29.381Z,36.00
2022-08-27T11:40:37.491Z,36.17
2022-08-27T11:43:30.012Z,35.88
2022-08-27T11:46:31.687Z,35.72
2022-08-27T11:49:41.459Z,35.86
2022-08-27T11:52:58.506Z,35.40
2022-08-27T11:55:46.200Z,35.29
2022-08-27T11:58:53.457Z,35.14
2022-08-27T12:01:41.346Z,35.07
2022-08-27T12:04:41.269Z,34.98
2022-08-27T12:07:36.459Z,35.05
2022-08-27T12:10:44.121Z,34.85
2022-08-27T12:13:46.093Z,35.19
2022-08-27T12:17:24.455Z,35.15
2022-08-27T12:20:23.812Z,35.09
2022-08-27T12:23:48.091Z,35.12
2022-08-27T12:26:43.003Z,35.25
2022-08-27T12:29:58.287Z,35.58
